createdAt,value
2018-03-25T00:00:09.871Z,0
2018-03-25T00:01:19.711Z,0
2018-03-25T00:02:29.515Z,0
2018-03-25T00:03:39.060Z,0
2018-03-25T00:04:49.138Z,0
2018-03-25T00:05:58.930Z,0
2018-03-25T00:07:09.012Z,0
2018-03-25T00:08:19.104Z,0
2018-03-25T00:09:28.384Z,0
2018-03-25T00:10:37.920Z,0
2018-03-25T00:11:47.975Z,0
2018-03-25T00:12:57.813Z,0
2018-03-25T00:14:07.901Z,0
2018-03-25T00:15:17.708Z,0
2018-03-25T00:16:27.254Z,0
2018-03-25T00:17:37.355Z,0
2018-03-25T00:18:47.149Z,0
2018-03-25T00:19:57.230Z,0
2018-03-25T00:21:06.773Z,0
2018-03-25T00:22:16.875Z,0
2018-03-25T00:23:26.658Z,0
2018-03-25T00:24:36.219Z,0
2018-03-25T00:25:46.041Z,0
2018-03-25T00:26:55.825Z,0
2018-03-25T00:28:05.997Z,0
2018-03-25T00:29:16.056Z,0
2018-03-25T00:30:26.108Z,0
2018-03-25T00:31:35.905Z,0
2018-03-25T00:32:45.700Z,0
2018-03-25T00:33:55.303Z,0
2018-03-25T00:35:04.856Z,0
2018-03-25T00:36:14.954Z,0
2018-03-25T00:37:25.029Z,0
2018-03-25T00:38:35.162Z,0
2018-03-25T00:39:44.740Z,0
2018-03-25T00:40:54.533Z,0
2018-03-25T00:42:04.594Z,0
2018-03-25T00:43:14.675Z,0
2018-03-25T00:44:24.501Z,0
2018-03-25T00:45:34.559Z,0
2018-03-25T00:46:44.626Z,0
2018-03-25T00:47:54.158Z,0
2018-03-25T00:49:04.215Z,0
2018-03-25T00:50:13.482Z,0
2018-03-25T00:51:23.294Z,0
2018-03-25T00:52:33.384Z,0
2018-03-25T00:53:43.461Z,0
2018-03-25T00:54:53.540Z,0
2018-03-25T00:56:03.599Z,0
2018-03-25T00:57:13.677Z,0
2018-03-25T00:58:23.489Z,0
2018-03-25T00:59:33.616Z,0
2018-03-25T01:00:43.667Z,0
2018-03-25T01:01:53.734Z,0
2018-03-25T01:03:03.803Z,0
2018-03-25T01:04:13.595Z,0
2018-03-25T01:05:23.678Z,0
2018-03-25T01:06:32.956Z,0
2018-03-25T01:07:42.985Z,0
2018-03-25T01:08:52.715Z,0
2018-03-25T01:10:02.530Z,0
2018-03-25T01:11:12.597Z,0
2018-03-25T01:12:22.677Z,0
2018-03-25T01:13:32.722Z,0
2018-03-25T01:14:42.789Z,0
2018-03-25T01:15:52.846Z,0
2018-03-25T08:39:18.411Z,180
2018-03-25T08:40:28.305Z,195
2018-03-25T08:41:38.412Z,190
2018-03-25T08:42:48.214Z,190
2018-03-25T08:43:57.988Z,195
2018-03-25T08:45:08.098Z,190
2018-03-25T08:46:18.152Z,195
2018-03-25T08:47:28.220Z,195
2018-03-25T08:48:38.298Z,195
2018-03-25T08:49:48.380Z,195
2018-03-25T08:50:58.210Z,200
2018-03-25T08:52:08.010Z,205
2018-03-25T08:53:17.799Z,200
2018-03-25T08:54:27.919Z,210
2018-03-25T08:55:37.866Z,205
2018-03-25T08:56:47.712Z,200
2018-03-25T08:57:57.312Z,205
2018-03-25T08:59:07.400Z,205
2018-03-25T09:00:17.196Z,155
2018-03-25T09:01:27.010Z,210
2018-03-25T09:02:36.872Z,185
2018-03-25T09:03:46.722Z,215
2018-03-25T09:04:56.539Z,165
2018-03-25T09:06:06.360Z,215
2018-03-25T09:07:16.201Z,205
2018-03-25T09:08:26.305Z,210
2018-03-25T09:09:36.460Z,230
2018-03-25T09:10:46.563Z,230
2018-03-25T09:11:56.389Z,235
2018-03-25T09:13:05.697Z,235
2018-03-25T09:14:15.254Z,220
2018-03-25T09:15:25.072Z,215
2018-03-25T09:16:34.652Z,215
2018-03-25T09:17:44.724Z,130
2018-03-25T09:18:54.536Z,215
2018-03-25T09:20:04.638Z,160
2018-03-25T09:21:14.195Z,215
2018-03-25T09:22:23.744Z,250
2018-03-25T09:23:33.841Z,250
2018-03-25T09:24:43.912Z,160
2018-03-25T09:25:54.040Z,140
2018-03-25T09:27:03.838Z,235
2018-03-25T09:28:13.925Z,210
2018-03-25T09:29:23.480Z,245
2018-03-25T09:30:33.565Z,245
2018-03-25T09:31:43.675Z,235
2018-03-25T09:32:53.760Z,240
2018-03-25T09:34:03.824Z,245
2018-03-25T09:35:13.910Z,245
2018-03-25T09:36:23.985Z,165
2018-03-25T09:37:33.857Z,160
2018-03-25T09:38:43.937Z,270
2018-03-25T09:39:53.764Z,210
2018-03-25T09:41:03.848Z,215
2018-03-25T09:42:13.679Z,210
2018-03-25T09:43:23.236Z,295
2018-03-25T09:44:33.315Z,300
2018-03-25T09:45:43.398Z,235
2018-03-25T09:46:53.471Z,250
2018-03-25T09:48:03.568Z,275
2018-03-25T09:49:13.646Z,280
2018-03-25T09:50:23.722Z,285
2018-03-25T09:51:33.515Z,270
2018-03-25T09:52:43.512Z,185
2018-03-25T09:53:53.599Z,175
2018-03-25T09:55:03.423Z,180
2018-03-25T09:56:13.484Z,240
2018-03-25T09:57:23.311Z,300
2018-03-25T09:58:33.490Z,285
2018-03-25T09:59:43.330Z,210
2018-03-25T10:00:53.393Z,230
2018-03-25T10:02:04.595Z,225
2018-03-25T10:03:16.224Z,195
2018-03-25T10:04:28.987Z,285
2018-03-25T10:05:41.989Z,200
2018-03-25T10:06:53.766Z,295
2018-03-25T10:08:04.247Z,280
2018-03-25T10:09:15.167Z,215
2018-03-25T10:10:26.506Z,195
2018-03-25T10:11:37.942Z,195
2018-03-25T10:12:49.244Z,255
2018-03-25T10:13:59.988Z,215
2018-03-25T10:15:10.884Z,305
2018-03-25T10:16:20.490Z,260
2018-03-25T10:17:30.816Z,190
2018-03-25T10:18:41.195Z,190
2018-03-25T10:19:51.314Z,260
2018-03-25T10:21:01.147Z,300
2018-03-25T10:22:11.011Z,240
2018-03-25T10:23:20.584Z,320
2018-03-25T10:24:30.740Z,340
2018-03-25T10:25:40.549Z,305
2018-03-25T10:26:50.654Z,215
2018-03-25T10:28:00.833Z,315
2018-03-25T10:29:10.670Z,290
2018-03-25T10:30:20.872Z,240
2018-03-25T10:31:30.954Z,225
2018-03-25T10:32:40.261Z,225
2018-03-25T10:33:50.098Z,225
2018-03-25T10:35:00.204Z,235
2018-03-25T10:36:10.403Z,230
2018-03-25T10:37:20.211Z,235
2018-03-25T10:38:30.329Z,230
2018-03-25T10:39:40.418Z,230
2018-03-25T10:40:50.068Z,230
2018-03-25T10:41:59.681Z,230
2018-03-25T10:43:09.778Z,235
2018-03-25T10:44:19.847Z,230
2018-03-25T10:45:29.671Z,230
2018-03-25T10:46:39.482Z,240
2018-03-25T10:47:49.081Z,245
2018-03-25T10:48:59.567Z,255
2018-03-25T10:50:08.872Z,255
2018-03-25T10:51:18.956Z,245
2018-03-25T10:52:29.088Z,240
2018-03-25T10:53:38.978Z,240
2018-03-25T10:54:49.077Z,265
2018-03-25T10:55:58.892Z,270
2018-03-25T10:57:08.703Z,260
2018-03-25T10:58:18.822Z,235
2018-03-25T10:59:28.896Z,230
2018-03-25T11:00:38.986Z,240
2018-03-25T11:01:48.802Z,240
2018-03-25T11:02:58.365Z,235
2018-03-25T11:04:08.442Z,245
2018-03-25T11:05:18.595Z,245
2018-03-25T11:06:28.405Z,250
2018-03-25T11:07:37.701Z,270
2018-03-25T11:08:47.797Z,290
2018-03-25T11:09:57.654Z,235
2018-03-25T11:11:07.784Z,245
2018-03-25T11:12:17.072Z,245
2018-03-25T11:13:26.626Z,240
2018-03-25T11:14:36.733Z,235
2018-03-25T11:15:46.830Z,230
2018-03-25T11:16:56.691Z,235
2018-03-25T11:18:06.777Z,245
2018-03-25T11:19:16.593Z,250
2018-03-25T11:20:26.423Z,245
2018-03-25T11:21:36.012Z,245
2018-03-25T11:22:45.840Z,250
2018-03-25T11:23:55.668Z,250
2018-03-25T11:25:05.505Z,260
2018-03-25T11:26:15.312Z,255
2018-03-25T11:27:25.418Z,240
2018-03-25T11:28:35.561Z,240
2018-03-25T11:29:45.407Z,260
2018-03-25T11:30:55.502Z,355
2018-03-25T11:32:05.138Z,255
2018-03-25T11:33:14.425Z,245
2018-03-25T11:34:24.046Z,270
2018-03-25T11:35:33.912Z,250
2018-03-25T11:36:43.756Z,240
2018-03-25T11:37:53.846Z,235
2018-03-25T11:39:03.671Z,260
2018-03-25T11:40:13.639Z,260
2018-03-25T11:41:23.796Z,275
2018-03-25T11:42:33.947Z,255
2018-03-25T11:43:43.798Z,350
2018-03-25T11:44:53.912Z,245
2018-03-25T11:46:03.723Z,255
2018-03-25T11:47:13.798Z,315
2018-03-25T11:48:23.369Z,310
2018-03-25T11:49:33.193Z,265
2018-03-25T11:50:43.342Z,280
2018-03-25T11:51:53.442Z,255
2018-03-25T11:53:03.522Z,235
2018-03-25T11:54:13.345Z,275
2018-03-25T11:55:23.193Z,240
2018-03-25T11:56:33.564Z,230
2018-03-25T11:57:43.663Z,240
2018-03-25T11:58:53.525Z,245
2018-03-25T12:00:03.857Z,260
2018-03-25T12:01:13.954Z,230
2018-03-25T12:02:23.799Z,225
2018-03-25T12:03:33.701Z,220
2018-03-25T12:04:43.799Z,220
2018-03-25T12:05:53.626Z,215
2018-03-25T12:07:03.846Z,220
2018-03-25T12:08:13.985Z,225
2018-03-25T12:09:24.097Z,225
2018-03-25T12:10:34.212Z,225
2018-03-25T12:11:44.304Z,225
2018-03-25T12:12:54.660Z,225
2018-03-25T12:14:04.838Z,225
2018-03-25T12:15:14.668Z,225
2018-03-25T12:16:24.916Z,225
2018-03-25T12:17:35.118Z,225
2018-03-25T12:18:44.942Z,235
2018-03-25T12:19:54.839Z,230
2018-03-25T12:21:04.921Z,225
2018-03-25T12:22:14.752Z,235
2018-03-25T12:23:24.856Z,225
2018-03-25T12:24:34.949Z,230
2018-03-25T12:25:45.097Z,230
2018-03-25T12:26:55.190Z,230
2018-03-25T12:28:05.266Z,230
2018-03-25T12:29:15.155Z,230
2018-03-25T12:30:24.997Z,230
2018-03-25T12:31:35.101Z,225
2018-03-25T12:32:45.188Z,225
2018-03-25T12:33:55.287Z,225
2018-03-25T12:35:05.363Z,230
2018-03-25T12:36:15.505Z,225
2018-03-25T12:37:25.588Z,220
2018-03-25T12:38:35.691Z,215
2018-03-25T12:39:45.788Z,210
2018-03-25T12:40:55.612Z,210
2018-03-25T12:42:05.736Z,215
2018-03-25T12:43:15.569Z,225
2018-03-25T12:44:25.658Z,215
2018-03-25T12:45:35.726Z,210
2018-03-25T12:46:45.832Z,210
2018-03-25T12:47:55.938Z,205
2018-03-25T12:49:06.049Z,200
2018-03-25T12:50:15.875Z,200
2018-03-25T12:51:25.719Z,200
2018-03-25T12:52:35.811Z,200
2018-03-25T12:53:45.957Z,200
2018-03-25T12:54:55.850Z,195
2018-03-25T12:56:05.678Z,195
2018-03-25T12:57:15.744Z,195
2018-03-25T12:58:25.600Z,190
2018-03-25T12:59:35.695Z,190
2018-03-25T13:00:45.821Z,190
2018-03-25T13:01:55.661Z,190
2018-03-25T13:03:05.501Z,190
2018-03-25T13:04:15.341Z,185
2018-03-25T13:05:25.288Z,185
2018-03-25T13:06:35.108Z,185
2018-03-25T13:07:44.924Z,190
2018-03-25T13:08:55.012Z,190
2018-03-25T13:10:05.092Z,190
2018-03-25T13:11:15.388Z,185
2018-03-25T13:12:25.508Z,185
2018-03-25T13:13:35.658Z,190
2018-03-25T13:14:45.764Z,185
2018-03-25T13:15:56.005Z,185
2018-03-25T13:17:06.227Z,185
2018-03-25T13:18:16.332Z,185
2018-03-25T13:19:26.149Z,185
2018-03-25T13:20:36.263Z,185
2018-03-25T13:21:46.389Z,185
2018-03-25T13:22:56.337Z,185
2018-03-25T13:24:06.452Z,185
2018-03-25T13:25:16.328Z,180
2018-03-25T13:26:26.436Z,180
2018-03-25T13:27:35.987Z,175
2018-03-25T13:28:46.065Z,180
2018-03-25T13:29:56.149Z,180
2018-03-25T13:31:06.252Z,185
2018-03-25T13:32:16.371Z,185
2018-03-25T13:33:26.213Z,185
2018-03-25T13:34:45.968Z,180
2018-03-25T13:35:56.149Z,200
2018-03-25T13:37:05.981Z,185
2018-03-25T13:38:16.105Z,185
2018-03-25T13:39:26.411Z,185
2018-03-25T13:40:36.539Z,180
2018-03-25T13:41:46.440Z,185
2018-03-25T13:42:56.302Z,185
2018-03-25T13:44:06.636Z,185
2018-03-25T13:45:16.678Z,185
2018-03-25T13:46:26.250Z,180
2018-03-25T13:47:36.091Z,175
2018-03-25T13:48:46.200Z,180
2018-03-25T13:49:56.326Z,185
2018-03-25T13:51:06.160Z,180
2018-03-25T13:52:16.053Z,185
2018-03-25T13:53:25.616Z,185
2018-03-25T13:54:35.759Z,180
2018-03-25T13:55:45.366Z,180
2018-03-25T13:56:54.963Z,185
2018-03-25T13:58:04.593Z,180
2018-03-25T13:59:14.695Z,175
2018-03-25T14:00:24.257Z,180
2018-03-25T14:01:33.806Z,185
2018-03-25T14:02:43.921Z,180
2018-03-25T14:03:54.501Z,175
2018-03-25T14:05:04.605Z,175
2018-03-25T14:06:14.714Z,160
2018-03-25T14:07:24.807Z,145
2018-03-25T14:08:35.149Z,145
2018-03-25T14:09:44.979Z,150
2018-03-25T14:10:55.309Z,150
2018-03-25T14:12:05.147Z,145
2018-03-25T14:13:14.967Z,145
2018-03-25T14:14:25.293Z,150
2018-03-25T14:15:35.427Z,150
2018-03-25T14:16:45.247Z,155
2018-03-25T14:17:55.086Z,165
2018-03-25T14:19:04.934Z,170
2018-03-25T14:20:14.788Z,170
2018-03-25T14:21:24.811Z,170
2018-03-25T14:22:35.011Z,155
2018-03-25T14:23:45.106Z,155
2018-03-25T14:24:54.944Z,135
2018-03-25T14:26:04.775Z,125
2018-03-25T14:27:14.951Z,150
2018-03-25T14:28:25.052Z,155
2018-03-25T14:29:35.151Z,180
2018-03-25T14:30:45.260Z,155
2018-03-25T14:31:55.410Z,130
2018-03-25T14:33:05.511Z,170
2018-03-25T14:34:15.621Z,140
2018-03-25T14:35:25.724Z,165
2018-03-25T14:36:35.797Z,185
2018-03-25T14:37:45.868Z,135
2018-03-25T14:38:55.974Z,175
2018-03-25T14:40:06.081Z,165
2018-03-25T14:41:15.649Z,135
2018-03-25T14:42:26.020Z,130
2018-03-25T14:43:36.113Z,150
2018-03-25T14:44:46.206Z,130
2018-03-25T14:45:56.299Z,150
2018-03-25T14:47:06.380Z,140
2018-03-25T14:48:16.464Z,155
2018-03-25T14:49:26.567Z,170
2018-03-25T14:50:36.730Z,160
2018-03-25T14:51:46.834Z,160
2018-03-25T14:52:56.925Z,165
2018-03-25T14:54:07.003Z,165
2018-03-25T14:55:16.828Z,170
2018-03-25T14:56:26.662Z,175
2018-03-25T14:57:36.767Z,175
2018-03-25T14:58:46.909Z,145
2018-03-25T14:59:57.001Z,160
2018-03-25T15:01:07.122Z,150
2018-03-25T15:02:17.753Z,160
2018-03-25T15:03:27.922Z,160
2018-03-25T15:04:38.013Z,145
2018-03-25T15:05:48.435Z,120
2018-03-25T15:06:58.292Z,130
2018-03-25T15:08:08.473Z,120
2018-03-25T15:09:18.346Z,115
2018-03-25T15:10:28.482Z,145
2018-03-25T15:11:38.579Z,145
2018-03-25T15:12:48.410Z,115
2018-03-25T15:13:58.339Z,110
2018-03-25T15:15:08.161Z,135
2018-03-25T15:16:18.483Z,130
2018-03-25T15:17:28.618Z,125
2018-03-25T15:18:38.230Z,130
2018-03-25T15:19:48.030Z,130
2018-03-25T15:20:58.110Z,125
2018-03-25T15:22:07.985Z,125
2018-03-25T15:23:18.076Z,120
2018-03-25T15:24:27.986Z,120
2018-03-25T15:25:38.089Z,95
2018-03-25T15:26:47.664Z,115
2018-03-25T15:27:57.269Z,105
2018-03-25T15:29:07.346Z,105
2018-03-25T15:30:17.671Z,115
2018-03-25T15:31:27.537Z,95
2018-03-25T15:32:37.866Z,110
2018-03-25T15:33:47.976Z,100
2018-03-25T15:34:58.120Z,105
2018-03-25T15:36:08.183Z,105
2018-03-25T15:37:17.787Z,85
2018-03-25T15:38:27.648Z,85
2018-03-25T15:39:37.473Z,90
2018-03-25T15:40:47.053Z,80
2018-03-25T15:41:57.201Z,80
2018-03-25T15:43:07.528Z,75
2018-03-25T15:44:17.610Z,75
2018-03-25T15:45:27.714Z,80
2018-03-25T15:46:38.067Z,85
2018-03-25T15:47:48.112Z,90
2018-03-25T15:48:58.199Z,85
2018-03-25T15:50:08.523Z,95
2018-03-25T15:51:18.523Z,95
2018-03-25T15:52:28.395Z,100
2018-03-25T15:53:38.430Z,95
2018-03-25T15:54:48.769Z,90
2018-03-25T15:55:58.837Z,90
2018-03-25T15:57:08.960Z,90
2018-03-25T15:58:19.661Z,85
2018-03-25T15:59:29.774Z,85
2018-03-25T16:00:39.631Z,85
2018-03-25T16:01:49.739Z,85
2018-03-25T16:02:59.874Z,85
2018-03-25T16:04:09.711Z,85
2018-03-25T16:05:19.743Z,85
2018-03-25T16:06:30.278Z,85
2018-03-25T16:07:40.381Z,85
2018-03-25T16:08:50.924Z,80
2018-03-25T16:10:00.770Z,75
2018-03-25T16:11:10.608Z,75
2018-03-25T16:12:21.022Z,70
2018-03-25T16:13:31.331Z,70
2018-03-25T16:14:41.635Z,65
2018-03-25T16:15:51.732Z,65
2018-03-25T16:17:01.844Z,65
2018-03-25T16:18:12.021Z,60
2018-03-25T16:19:22.138Z,55
2018-03-25T16:20:32.271Z,55
2018-03-25T16:21:42.609Z,50
2018-03-25T16:22:53.638Z,50
2018-03-25T16:24:02.947Z,50
2018-03-25T16:25:13.123Z,50
2018-03-25T16:26:22.996Z,45
2018-03-25T16:27:33.028Z,45
2018-03-25T16:28:43.110Z,45
2018-03-25T16:29:52.962Z,45
2018-03-25T16:31:03.079Z,40
2018-03-25T16:32:13.426Z,40
2018-03-25T16:33:23.295Z,40
2018-03-25T16:34:33.380Z,40
2018-03-25T16:35:43.337Z,35
2018-03-25T16:36:53.230Z,35
2018-03-25T16:38:03.083Z,35
2018-03-25T16:39:13.138Z,35
2018-03-25T16:40:23.262Z,35
2018-03-25T16:41:33.623Z,30
2018-03-25T16:42:43.457Z,30
2018-03-25T16:43:54.196Z,30
2018-03-25T16:45:04.305Z,25
2018-03-25T16:46:14.628Z,25
2018-03-25T16:47:24.235Z,25
2018-03-25T16:48:34.086Z,25
2018-03-25T16:49:43.957Z,20
2018-03-25T16:50:54.066Z,20
2018-03-25T16:52:04.359Z,20
2018-03-25T16:53:14.198Z,20
2018-03-25T16:54:24.324Z,15
2018-03-25T16:55:34.707Z,15
2018-03-25T16:56:44.810Z,15
2018-03-25T16:57:54.920Z,15
2018-03-25T16:59:05.020Z,15
2018-03-25T17:00:15.419Z,10
2018-03-25T17:01:25.767Z,10
2018-03-25T17:02:35.705Z,10
2018-03-25T17:03:45.768Z,10
2018-03-25T17:04:55.957Z,10
2018-03-25T17:06:06.001Z,5
2018-03-25T17:07:16.110Z,5
2018-03-25T17:08:26.254Z,5
2018-03-25T17:09:36.521Z,5
2018-03-25T17:10:46.431Z,5
2018-03-25T17:11:56.568Z,5
2018-03-25T17:13:06.752Z,5
2018-03-25T17:14:16.868Z,0
2018-03-25T17:15:27.041Z,0
2018-03-25T17:16:37.388Z,0
2018-03-25T17:17:47.526Z,0
2018-03-25T17:18:57.631Z,0
2018-03-25T17:20:07.777Z,0
2018-03-25T17:21:18.132Z,0
2018-03-25T17:22:28.067Z,0
2018-03-25T17:23:38.182Z,0
2018-03-25T17:24:48.139Z,0
2018-03-25T17:25:58.308Z,0
2018-03-25T17:27:08.772Z,0
2018-03-25T17:28:18.948Z,0
2018-03-25T17:29:29.122Z,0
2018-03-25T17:30:38.995Z,0
2018-03-25T17:31:48.921Z,0
2018-03-25T17:32:58.806Z,0
2018-03-25T17:34:09.132Z,0
2018-03-25T17:35:18.681Z,0
2018-03-25T17:36:28.245Z,0
2018-03-25T17:37:38.349Z,0
2018-03-25T17:38:47.927Z,0
2018-03-25T17:39:58.075Z,0
2018-03-25T17:41:08.263Z,0
2018-03-25T17:42:18.870Z,0
2018-03-25T17:43:29.205Z,0
2018-03-25T17:44:39.294Z,0
2018-03-25T17:45:49.408Z,0
2018-03-25T17:46:59.232Z,0
2018-03-25T17:48:09.327Z,0
2018-03-25T17:49:19.138Z,0
2018-03-25T17:50:28.959Z,0
2018-03-25T17:51:39.469Z,0
2018-03-25T17:52:49.899Z,0
2018-03-25T17:53:59.964Z,0
2018-03-25T17:55:09.779Z,0
2018-03-25T17:56:19.581Z,0
2018-03-25T17:57:29.804Z,0
2018-03-25T17:58:39.722Z,0
2018-03-25T17:59:49.837Z,0
2018-03-25T18:00:59.665Z,0
2018-03-25T18:02:09.804Z,0
2018-03-25T18:03:19.677Z,0
2018-03-25T18:04:29.753Z,0
2018-03-25T18:05:39.990Z,0
2018-03-25T18:06:49.250Z,0
2018-03-25T18:07:58.828Z,0
2018-03-25T18:09:09.099Z,0
2018-03-25T18:10:19.253Z,0
2018-03-25T18:11:28.858Z,0
2018-03-25T18:12:39.018Z,0
2018-03-25T18:13:49.196Z,0
2018-03-25T18:14:59.484Z,0
2018-03-25T18:16:09.698Z,0
2018-03-25T18:17:43.542Z,0
2018-03-25T18:18:53.490Z,0
2018-03-25T18:20:03.461Z,0
2018-03-25T18:21:13.782Z,0
2018-03-25T18:22:23.729Z,0
2018-03-25T18:23:34.060Z,0
2018-03-25T18:24:44.413Z,0
2018-03-25T18:25:54.203Z,0
2018-03-25T18:27:04.102Z,0
2018-03-25T18:28:14.284Z,0
2018-03-25T18:29:24.453Z,0
2018-03-25T18:30:34.619Z,0
2018-03-25T18:31:44.551Z,0
2018-03-25T18:32:54.440Z,0
2018-03-25T18:34:04.596Z,0
2018-03-25T18:35:13.992Z,0
2018-03-25T18:36:24.144Z,0
2018-03-25T18:37:33.998Z,0
2018-03-25T18:38:43.599Z,0
2018-03-25T18:39:54.057Z,0
2018-03-25T18:41:04.151Z,0
2018-03-25T18:42:14.268Z,0
2018-03-25T18:43:24.472Z,0
2018-03-25T18:44:34.375Z,0
2018-03-25T18:45:44.567Z,0
2018-03-25T18:46:54.454Z,0
2018-03-25T18:48:04.598Z,0
2018-03-25T18:49:14.577Z,0
2018-03-25T18:50:24.929Z,0
2018-03-25T18:51:34.797Z,0
2018-03-25T18:52:45.590Z,0
2018-03-25T18:53:55.713Z,0
2018-03-25T18:55:05.555Z,0
2018-03-25T18:56:15.432Z,0
2018-03-25T18:57:25.604Z,0
2018-03-25T18:58:35.502Z,0
2018-03-25T18:59:45.636Z,0
2018-03-25T19:00:55.541Z,0
2018-03-25T19:02:05.518Z,0
2018-03-25T19:03:15.806Z,0
2018-03-25T19:04:25.704Z,0
2018-03-25T19:05:35.567Z,0
2018-03-25T19:06:45.692Z,0
2018-03-25T19:07:55.756Z,0
2018-03-25T19:09:05.968Z,0
2018-03-25T19:10:15.840Z,0
2018-03-25T19:11:25.736Z,0
2018-03-25T19:12:35.719Z,0
2018-03-25T19:13:45.843Z,0
2018-03-25T19:14:55.978Z,0
2018-03-25T19:16:06.373Z,0
2018-03-25T19:17:15.970Z,0
2018-03-25T19:18:25.944Z,0
2018-03-25T19:19:35.904Z,0
2018-03-25T19:20:46.059Z,0
2018-03-25T19:21:56.165Z,0
2018-03-25T19:23:06.311Z,0
2018-03-25T19:24:16.399Z,0
2018-03-25T19:25:26.548Z,0
2018-03-25T19:26:36.694Z,0
2018-03-25T19:27:46.546Z,0
2018-03-25T19:28:56.402Z,0
2018-03-25T19:30:06.572Z,0
2018-03-25T19:31:16.743Z,0
2018-03-25T19:32:26.895Z,0
2018-03-25T19:33:36.777Z,0
2018-03-25T19:34:46.687Z,0
2018-03-25T19:35:56.914Z,0
2018-03-25T19:37:06.808Z,0
2018-03-25T19:38:16.768Z,0
2018-03-25T19:39:26.626Z,0
2018-03-25T19:40:36.876Z,0
2018-03-25T19:41:46.754Z,0
2018-03-25T19:42:56.943Z,0
2018-03-25T19:44:06.818Z,0
2018-03-25T19:45:16.964Z,0
2018-03-25T19:46:27.096Z,0
2018-03-25T19:47:37.072Z,0
2018-03-25T19:48:47.183Z,0
2018-03-25T19:49:57.043Z,0
2018-03-25T19:51:07.180Z,0
2018-03-25T19:52:17.380Z,0
2018-03-25T19:53:27.624Z,0
2018-03-25T19:54:37.479Z,0
2018-03-25T19:55:47.338Z,0
2018-03-25T19:56:57.536Z,0
2018-03-25T19:58:07.666Z,0
2018-03-25T19:59:17.534Z,0
2018-03-25T20:00:27.386Z,0
2018-03-25T20:01:37.533Z,0
2018-03-25T20:02:47.673Z,0
2018-03-25T20:03:57.523Z,0
2018-03-25T20:05:08.585Z,0
2018-03-25T20:06:25.050Z,0
2018-03-25T20:07:38.897Z,0
2018-03-25T20:08:49.261Z,0
2018-03-25T20:09:59.140Z,0
2018-03-25T20:11:09.286Z,0
2018-03-25T20:12:19.163Z,0
2018-03-25T20:13:29.295Z,0
2018-03-25T20:14:39.215Z,0
2018-03-25T20:15:49.162Z,0
2018-03-25T20:16:59.567Z,0
2018-03-25T20:18:09.458Z,0
2018-03-25T20:19:19.328Z,0
2018-03-25T20:20:29.474Z,0
2018-03-25T20:21:39.660Z,0
2018-03-25T20:22:49.734Z,0
2018-03-25T20:23:59.836Z,0
2018-03-25T20:25:09.683Z,0
2018-03-25T20:26:20.399Z,0
2018-03-25T20:27:30.517Z,0
2018-03-25T20:28:39.850Z,0
2018-03-25T20:29:49.725Z,0
2018-03-25T20:30:59.853Z,0
2018-03-25T20:32:10.000Z,0
2018-03-25T20:33:20.307Z,0
2018-03-25T20:34:30.122Z,0
2018-03-25T20:35:40.225Z,0
2018-03-25T20:36:50.364Z,0
2018-03-25T20:38:00.525Z,0
2018-03-25T20:39:10.424Z,0
2018-03-25T20:40:20.570Z,0
2018-03-25T20:41:30.570Z,0
2018-03-25T20:42:40.397Z,0
2018-03-25T20:43:50.521Z,0
2018-03-25T20:45:00.106Z,0
2018-03-25T20:46:09.704Z,0
2018-03-25T20:47:19.863Z,0
2018-03-25T20:48:29.940Z,0
2018-03-25T20:49:39.809Z,0
2018-03-25T20:50:50.338Z,0
2018-03-25T20:52:00.398Z,0
2018-03-25T20:53:10.214Z,0
2018-03-25T20:54:20.249Z,0
2018-03-25T20:55:30.368Z,0
2018-03-25T20:56:40.431Z,0
2018-03-25T20:57:50.648Z,0
2018-03-25T20:59:00.487Z,0
2018-03-25T21:00:10.780Z,0
2018-03-25T21:01:21.336Z,0
2018-03-25T21:02:30.973Z,0
2018-03-25T21:03:41.070Z,0
2018-03-25T21:04:51.194Z,0
2018-03-25T21:06:01.283Z,0
2018-03-25T21:07:11.380Z,0
2018-03-25T21:08:21.894Z,0
2018-03-25T21:09:31.728Z,0
2018-03-25T21:10:42.032Z,0
2018-03-25T21:11:52.451Z,0
2018-03-25T21:13:02.529Z,0
2018-03-25T21:14:12.880Z,0
2018-03-25T21:15:22.699Z,0
2018-03-25T21:16:32.544Z,0
2018-03-25T21:17:42.110Z,0
2018-03-25T21:18:51.692Z,0
2018-03-25T21:20:01.242Z,0
2018-03-25T21:21:11.053Z,0
2018-03-25T21:22:21.192Z,0
2018-03-25T21:23:31.020Z,0
2018-03-25T21:24:40.653Z,0
2018-03-25T21:25:50.281Z,0
2018-03-25T21:27:00.362Z,0
2018-03-25T21:28:09.911Z,0
2018-03-25T21:29:19.452Z,0
2018-03-25T21:30:29.538Z,0
2018-03-25T21:31:39.394Z,0
2018-03-25T21:32:49.470Z,0
2018-03-25T21:33:59.297Z,0
2018-03-25T21:35:09.104Z,0
2018-03-25T21:36:19.304Z,0
2018-03-25T21:37:28.563Z,0
2018-03-25T21:38:38.406Z,0
2018-03-25T21:39:48.236Z,0
2018-03-25T21:40:58.339Z,0
2018-03-25T21:42:08.164Z,0
2018-03-25T21:43:18.004Z,0
2018-03-25T21:44:27.549Z,0
2018-03-25T21:45:37.376Z,0
2018-03-25T21:46:46.919Z,0
2018-03-25T21:47:56.864Z,0
2018-03-25T21:49:06.196Z,0
2018-03-25T21:50:15.736Z,0
2018-03-25T21:51:25.843Z,0
2018-03-25T21:52:35.654Z,0
2018-03-25T21:53:45.758Z,0
2018-03-25T21:54:55.876Z,0
2018-03-25T21:56:05.677Z,0
2018-03-25T21:57:15.781Z,0
2018-03-25T21:58:25.363Z,0
2018-03-25T21:59:35.186Z,0
2018-03-25T22:00:44.991Z,0
2018-03-25T22:01:54.821Z,0
2018-03-25T22:03:04.618Z,0
2018-03-25T22:04:14.439Z,0
2018-03-25T22:05:24.501Z,0
2018-03-25T22:06:34.617Z,0
2018-03-25T22:07:44.412Z,0
2018-03-25T22:08:53.940Z,0
2018-03-25T22:10:04.036Z,0
2018-03-25T22:11:13.674Z,0
2018-03-25T22:12:24.058Z,0
2018-03-25T22:13:33.880Z,0
2018-03-25T22:14:43.682Z,0
2018-03-25T22:15:53.750Z,0
2018-03-25T22:17:04.127Z,0
2018-03-25T22:18:14.326Z,0
2018-03-25T22:19:24.628Z,0
2018-03-25T22:20:34.872Z,0
2018-03-25T22:21:44.416Z,0
2018-03-25T22:22:54.223Z,0
2018-03-25T22:24:04.343Z,0
2018-03-25T22:25:14.147Z,0
2018-03-25T22:26:24.004Z,0
2018-03-25T22:27:33.795Z,0
2018-03-25T22:28:43.870Z,0
2018-03-25T22:29:53.688Z,0
2018-03-25T22:31:03.442Z,0
2018-03-25T22:32:13.011Z,0
2018-03-25T22:33:23.148Z,0
2018-03-25T22:34:33.205Z,0
2018-03-25T22:35:43.261Z,0
2018-03-25T22:36:52.798Z,0
2018-03-25T22:38:02.605Z,0
2018-03-25T22:39:12.133Z,0
2018-03-25T22:40:22.445Z,0
2018-03-25T22:41:32.340Z,0
2018-03-25T22:42:42.713Z,0
2018-03-25T22:43:53.055Z,0
2018-03-25T22:45:03.326Z,0
2018-03-25T22:46:13.351Z,0
2018-03-25T22:47:23.119Z,0
2018-03-25T22:48:33.626Z,0
2018-03-25T22:49:43.699Z,0
2018-03-25T22:50:53.238Z,0
2018-03-25T22:52:03.231Z,0
2018-03-25T22:53:13.373Z,0
2018-03-25T22:54:23.464Z,0
2018-03-25T22:55:33.831Z,0
2018-03-25T22:56:43.099Z,0
2018-03-25T22:57:52.644Z,0
2018-03-25T22:59:02.724Z,0
2018-03-25T23:00:12.531Z,0
2018-03-25T23:01:22.642Z,0
2018-03-25T23:02:32.922Z,0
2018-03-25T23:03:43.188Z,0
2018-03-25T23:04:53.380Z,0
2018-03-25T23:06:03.657Z,0
2018-03-25T23:07:13.460Z,0
2018-03-25T23:08:23.551Z,0
2018-03-25T23:09:33.367Z,0
2018-03-25T23:10:43.203Z,0
2018-03-25T23:11:53.064Z,0
2018-03-25T23:13:03.320Z,0
2018-03-25T23:14:13.169Z,0
2018-03-25T23:15:23.456Z,0
2018-03-25T23:16:47.885Z,0
2018-03-25T23:17:57.999Z,0
2018-03-25T23:19:07.810Z,0
2018-03-25T23:20:18.343Z,0
2018-03-25T23:21:28.415Z,0
2018-03-25T23:22:38.493Z,0
2018-03-25T23:23:48.573Z,0
2018-03-25T23:24:58.711Z,0
2018-03-25T23:26:08.776Z,0
2018-03-25T23:27:19.075Z,0
2018-03-25T23:28:29.356Z,0
2018-03-25T23:29:39.181Z,0
2018-03-25T23:30:49.264Z,0
2018-03-25T23:31:59.416Z,0
2018-03-25T23:33:09.717Z,0
2018-03-25T23:34:19.275Z,0
2018-03-25T23:35:30.003Z,0
2018-03-25T23:36:39.992Z,0
2018-03-25T23:37:49.821Z,0
2018-03-25T23:38:59.902Z,0
2018-03-25T23:40:09.558Z,0
2018-03-25T23:41:18.801Z,0
2018-03-25T23:42:28.816Z,0
2018-03-25T23:43:38.616Z,0
2018-03-25T23:44:48.375Z,0
2018-03-25T23:45:58.743Z,0
2018-03-25T23:47:08.812Z,0
2018-03-25T23:48:18.364Z,0
2018-03-25T23:49:28.137Z,0
2018-03-25T23:50:38.374Z,0
2018-03-25T23:51:48.457Z,0
2018-03-25T23:52:58.518Z,0
2018-03-25T23:54:08.555Z,0
2018-03-25T23:55:19.091Z,0
2018-03-25T23:56:29.228Z,0
2018-03-25T23:57:39.349Z,0
2018-03-25T23:58:49.557Z,0
2018-03-25T23:59:59.372Z,0
